warning for Thunderstorms more information blitzortung!


warning for Rain more information rain snow radar


Visit our other weather sites:

Template documentation
and downloads

And another site



Thunderstorms From: 27-04-2018 12:00 Until: 17:59 warning for: Thunderstorms Level: Yellow info button
Rain From: 27-04-2018 12:00 Until: 17:59 warning for: Rain Level: Yellow info button

Weather Underground History page Text

Daily Summary for April 27, 2018 Units:  Metric    English   Both
« Previous Day
Next Day »
Daily Weekly Monthly Yearly Custom
  Current: High: Low: Average:
Temperature: -10.8 °C -17.8 °C -10.8 °C -10.3 °C
Dew Point: -12.7 °C -17.8 °C -12.7 °C -12.3 °C
Humidity: 80 % Humidity % 75 % 77 %
Wind Speed: 3.1 km/h 0 km/h 0 km/h 6.1 km/h
Wind Gust: 3.1 km/h 0 km/h - -
Wind:SW - - WSW
Pressure: 34327.3 hPa 0 hPa 34327.3 hPa -
Precipitation: 0 mm      
Historical Graphs
 
 
Tabular Data for April 27, 2018
Time Temperature Dew Point Pressure Wind Wind Speed Wind Gust Humidity Rainfall Rate (Hourly)
-17.8 °C -17.8 °C 0 hPa Calm     Humidity % 0 mm
00:02 -9.6 °C -12.1 °C 34395 hPa WSW 6 km/h 6.3 km/h 75 % 0 mm
00:07 -9.7 °C -12.1 °C 34395 hPa West 6.8 km/h 6.8 km/h 75 % 0 mm
00:12 -9.7 °C -12.1 °C 34395 hPa WSW 9 km/h 9 km/h 76 % 0 mm
00:17 -9.7 °C -12.2 °C 34395 hPa SW 9 km/h 9 km/h 75 % 0 mm
00:22 -9.8 °C -12.1 °C 34395 hPa WSW 6 km/h 6 km/h 76 % 0 mm
00:27 -9.8 °C -12.1 °C 34395 hPa SW 6.3 km/h 6.3 km/h 76 % 0 mm
00:32 -9.8 °C -12.2 °C 34395 hPa SW 8 km/h 8 km/h 76 % 0 mm
00:37 -9.8 °C -12.2 °C 34395 hPa SW 6.8 km/h 6.8 km/h 76 % 0 mm
00:42 -9.9 °C -12.2 °C 34395 hPa SW 9 km/h 9 km/h 76 % 0 mm
00:47 -9.9 °C -12.2 °C 34395 hPa WSW 9 km/h 9 km/h 76 % 0 mm
00:52 -9.9 °C -12.2 °C 34395 hPa WSW 9 km/h 9 km/h 76 % 0 mm
00:57 -9.9 °C -12.1 °C 34395 hPa WSW 9 km/h 9 km/h 77 % 0 mm
01:02 -9.9 °C -12.2 °C 34395 hPa WSW 9 km/h 9 km/h 76 % 0 mm
01:07 -9.9 °C -12.1 °C 34395 hPa West 11.9 km/h 11.9 km/h 77 % 0 mm
01:12 -9.9 °C -12.1 °C 34395 hPa WSW 6.8 km/h 6.8 km/h 77 % 0 mm
01:17 -9.9 °C -12.1 °C 34395 hPa WSW 11.9 km/h 11.9 km/h 77 % 0 mm
01:22 -9.9 °C -12.1 °C 34395 hPa WSW 6 km/h 6 km/h 77 % 0 mm
01:27 -9.9 °C -12.1 °C 34395 hPa SW 11.9 km/h 11.9 km/h 77 % 0 mm
01:32 -9.9 °C -12 °C 34395 hPa WSW 6 km/h 6 km/h 78 % 0 mm
01:37 -9.9 °C -12.1 °C 34395 hPa WSW 11.9 km/h 11.9 km/h 78 % 0 mm
01:42 -9.9 °C -12.1 °C 34395 hPa SW 6 km/h 6 km/h 78 % 0 mm
01:47 -9.9 °C -12.1 °C 34395 hPa West 6 km/h 6 km/h 78 % 0 mm
01:52 -9.9 °C -12.1 °C 34395 hPa WSW 8.5 km/h 8.5 km/h 78 % 0 mm
01:57 -10 °C -12.1 °C 34395 hPa West 6 km/h 6 km/h 78 % 0 mm
02:02 -10 °C -12.1 °C 34395 hPa West 6 km/h 6 km/h 78 % 0 mm
02:07 -10 °C -12.1 °C 34361.1 hPa WSW 6 km/h 6 km/h 78 % 0 mm
02:12 -10.1 °C -12.2 °C 34361.1 hPa SW 4.2 km/h 4.2 km/h 78 % 0 mm
02:17 -10.1 °C -12.1 °C 34361.1 hPa SW 3.1 km/h 3.1 km/h 79 % 0 mm
02:22 -10.2 °C -12.2 °C 34361.1 hPa Calm     79 % 0 mm
02:27 -10.2 °C -12.2 °C 34361.1 hPa SW 6 km/h   79 % 0 mm
02:32 -10.3 °C -12.3 °C 34361.1 hPa SW 3.1 km/h   79 % 0 mm
02:37 -10.3 °C -12.3 °C 34327.3 hPa Calm     79 % 0 mm
02:42 -10.3 °C -12.3 °C 34327.3 hPa WSW 6 km/h 6 km/h 79 % 0 mm
02:47 -10.3 °C -12.3 °C 34327.3 hPa WSW 6 km/h 6 km/h 79 % 0 mm
02:50 -10.3 °C -12.3 °C 34327.3 hPa SW 6 km/h   79 % 0 mm
02:55 -10.3 °C -12.3 °C 34327.3 hPa WSW 6 km/h 6 km/h 79 % 0 mm
03:00 -10.3 °C -12.3 °C 34327.3 hPa West 6.3 km/h 6.3 km/h 79 % 0 mm
03:05 -10.3 °C -12.3 °C 34327.3 hPa West 6.3 km/h 6.3 km/h 79 % 0 mm
03:10 -10.3 °C -12.3 °C 34327.3 hPa WSW 5.6 km/h 5.6 km/h 79 % 0 mm
03:15 -10.3 °C -12.3 °C 34327.3 hPa WSW 6 km/h 6 km/h 79 % 0 mm
03:20 -10.3 °C -12.3 °C 34327.3 hPa SW 6 km/h 6 km/h 79 % 0 mm
03:25 -10.3 °C -12.3 °C 34327.3 hPa SW 6 km/h 6 km/h 79 % 0 mm
03:30 -10.3 °C -12.3 °C 34327.3 hPa SW 6.3 km/h 6.3 km/h 79 % 0 mm
03:35 -10.3 °C -12.3 °C 34327.3 hPa SW 6 km/h 6 km/h 79 % 0 mm
03:40 -10.3 °C -12.3 °C 34327.3 hPa WSW 6 km/h 6 km/h 79 % 0 mm
03:45 -10.3 °C -12.3 °C 34327.3 hPa WSW 9 km/h 9 km/h 79 % 0 mm
03:50 -10.3 °C -12.3 °C 34327.3 hPa WSW 6.3 km/h 6.3 km/h 79 % 0 mm
03:55 -10.3 °C -12.3 °C 34327.3 hPa WSW 6.3 km/h 6.3 km/h 79 % 0 mm
04:00 -10.3 °C -12.3 °C 34327.3 hPa WSW 6 km/h 6 km/h 79 % 0 mm
04:05 -10.3 °C -12.2 °C 34327.3 hPa WSW 3.1 km/h   80 % 0 mm
04:10 -10.4 °C -12.3 °C 34327.3 hPa WSW 3.1 km/h 3.1 km/h 80 % 0 mm
04:15 -10.5 °C -12.4 °C 34327.3 hPa SW 4.2 km/h 4.2 km/h 80 % 0 mm
04:20 -10.5 °C -12.4 °C 34327.3 hPa SW 6 km/h 6 km/h 80 % 0 mm
04:25 -10.6 °C -12.4 °C 34327.3 hPa Calm     80 % 0 mm
04:30 -10.6 °C -12.4 °C 34327.3 hPa WSW 3.7 km/h 3.7 km/h 80 % 0 mm
04:35 -10.6 °C -12.4 °C 34327.3 hPa WSW 3.1 km/h 3.1 km/h 80 % 0 mm
04:40 -10.6 °C -12.4 °C 34327.3 hPa SW 3.1 km/h 3.1 km/h 80 % 0 mm
04:45 -10.7 °C -12.6 °C 34327.3 hPa SW 4.2 km/h 4.2 km/h 80 % 0 mm
04:50 -10.8 °C -12.7 °C 34327.3 hPa SW 3.1 km/h 3.1 km/h 80 % 0 mm
Meteo Sesrovires
Compliments of Weather Underground - 2.75 mb

Script developed by  Jim McMurry - jmcmurry@mwt.net Adapted for the template by  Wim van der Kuil - Leuven-Template.eu

You find our weather info also at:

Weather Underground

AWEKAS